Terminal Aerodrome Forecast
Issued by NWS Charleston, WV

Current Version | Previous Version | Graphics & Text | Print | Product List | Glossary On
Versions: 1 2 3 4 5 6 7 8 9 10 11 12 13 14 15 16 17 18 19 20 21 22 23 24 25
653
FTUS41 KRLX 280535
TAFBKW
TAF
KBKW 280535Z 2806/2906 VRB03KT P6SM BKN040
     FM281000 23004KT P6SM BKN030
     FM281500 23007KT P6SM BKN035
     FM281700 23009G15KT P6SM BKN040
     FM282000 26007KT P6SM VCTS BKN040CB
     FM290000 25006KT P6SM BKN035=

USA.gov is the U.S. government's official web portal to all federal, state and local government web resources and services.